Time;durP1;ratioP1;P1;durP2;ratioP2;P2;SDS_P1;SDS_P2;PMS_P1;PMS_P2;Temp;Humidity;BMP_temperature;BMP_pressure;BME280_temperature;BME280_humidity;BME280_pressure;Samples;Min_cycle;Max_cycle;Signal;HPM_P1;HPM_P2
2023/09/20 00:00:38;;;;;;;2.67;1.70;;;11.90;99.90;;;;;;4928483;28;20028;-59
2023/09/20 00:03:04;;;;;;;2.40;1.70;;;11.80;99.90;;;;;;4930468;29;20036;-59
2023/09/20 00:05:30;;;;;;;3.10;1.88;;;11.90;99.90;;;;;;4927617;29;20024;-60
2023/09/20 00:07:56;;;;;;;3.92;1.70;;;11.90;99.90;;;;;;4931053;29;20024;-58
2023/09/20 00:10:24;;;;;;;1.55;1.35;;;11.90;99.90;;;;;;4931203;29;20067;-59
2023/09/20 00:12:50;;;;;;;43.78;31.88;;;11.90;99.90;;;;;;4931439;29;20396;-59
2023/09/20 00:15:16;;;;;;;1999.90;999.90;;;11.90;99.90;;;;;;4914099;28;20036;-59
2023/09/20 00:17:42;;;;;;;1999.90;999.90;;;11.90;99.90;;;;;;4930335;29;20036;-59
2023/09/20 00:20:12;;;;;;;1999.90;999.90;;;11.90;99.90;;;;;;4925893;29;20042;-60
2023/09/20 00:22:40;;;;;;;1999.90;999.90;;;11.90;99.90;;;;;;4930507;29;20080;-58
2023/09/20 00:25:07;;;;;;;1999.90;999.90;;;11.90;99.90;;;;;;4926012;29;20107;-59
2023/09/20 00:27:33;;;;;;;74.13;69.47;;;11.90;99.90;;;;;;4929499;29;20028;-58
2023/09/20 00:29:58;;;;;;;0.70;0.70;;;11.80;99.90;;;;;;4930065;29;20170;-59
2023/09/20 00:32:24;;;;;;;0.75;0.75;;;11.80;99.90;;;;;;4928779;29;20036;-60
2023/09/20 00:34:51;;;;;;;0.88;0.88;;;11.80;99.90;;;;;;4908579;29;20024;-60
2023/09/20 00:37:16;;;;;;;0.65;0.65;;;11.80;99.90;;;;;;4925590;29;20029;-60
2023/09/20 00:39:42;;;;;;;0.55;0.55;;;11.80;99.90;;;;;;4928205;29;20036;-59
2023/09/20 00:42:08;;;;;;;2.45;1.48;;;11.80;99.90;;;;;;4925769;29;20027;-59
2023/09/20 00:44:35;;;;;;;1.50;0.80;;;11.80;99.90;;;;;;4928711;29;21346;-58
2023/09/20 00:47:03;;;;;;;0.70;0.68;;;11.70;99.90;;;;;;4929884;29;20474;-59
2023/09/20 00:49:29;;;;;;;5.15;1.05;;;11.70;99.90;;;;;;4910231;29;20115;-59
2023/09/20 00:51:56;;;;;;;1.00;0.90;;;11.70;99.90;;;;;;4929453;29;20555;-58
2023/09/20 00:54:22;;;;;;;2.40;1.60;;;11.70;99.90;;;;;;4929388;29;20039;-59
2023/09/20 00:56:49;;;;;;;0.90;0.70;;;11.70;99.90;;;;;;4929822;29;20165;-59
2023/09/20 00:59:16;;;;;;;1.05;0.85;;;11.70;99.90;;;;;;4930151;29;20566;-58
2023/09/20 01:01:42;;;;;;;1.02;1.02;;;11.70;99.90;;;;;;4928666;29;20023;-59
2023/09/20 01:04:08;;;;;;;1.08;0.98;;;11.70;99.90;;;;;;4928983;28;20633;-59
2023/09/20 01:06:36;;;;;;;1.10;0.93;;;11.70;99.90;;;;;;4928790;29;20027;-59
2023/09/20 01:09:03;;;;;;;50.65;41.95;;;11.70;99.90;;;;;;4927520;28;20038;-59
2023/09/20 01:11:29;;;;;;;1.15;1.05;;;11.70;99.90;;;;;;4927954;29;20579;-60
2023/09/20 01:13:56;;;;;;;0.70;0.70;;;11.70;99.90;;;;;;4927319;29;20024;-59
2023/09/20 01:16:21;;;;;;;1.42;1.23;;;11.60;99.90;;;;;;4930215;29;21011;-59
2023/09/20 01:18:48;;;;;;;1.20;1.05;;;11.60;99.90;;;;;;4928956;29;20131;-59
2023/09/20 01:21:13;;;;;;;1.15;0.80;;;11.60;99.90;;;;;;4928927;29;20120;-60
2023/09/20 01:23:42;;;;;;;1.20;1.10;;;11.60;99.90;;;;;;4931277;29;20121;-59
2023/09/20 01:26:14;;;;;;;0.60;0.60;;;11.50;99.90;;;;;;4929145;29;20034;-59
2023/09/20 01:28:39;;;;;;;0.60;0.60;;;11.40;99.90;;;;;;4929228;29;20019;-59
2023/09/20 01:31:05;;;;;;;0.50;0.50;;;11.30;99.90;;;;;;4927272;29;20024;-59
2023/09/20 01:33:31;;;;;;;1.73;0.75;;;11.20;99.90;;;;;;4927548;29;20064;-57
2023/09/20 01:35:58;;;;;;;1.08;0.98;;;11.20;99.90;;;;;;4926632;29;20149;-59
2023/09/20 01:38:25;;;;;;;1.30;0.90;;;11.20;99.90;;;;;;4928062;29;20027;-59
2023/09/20 01:40:55;;;;;;;3.15;1.15;;;11.20;99.90;;;;;;4928220;29;20076;-59
2023/09/20 01:43:22;;;;;;;1.67;0.90;;;11.20;99.90;;;;;;4926223;29;20057;-59
2023/09/20 01:45:47;;;;;;;0.60;0.60;;;11.20;99.90;;;;;;4928386;29;20032;-58
2023/09/20 01:48:14;;;;;;;1.05;0.98;;;11.20;99.90;;;;;;4929648;28;20164;-60
2023/09/20 01:50:43;;;;;;;0.80;0.80;;;11.20;99.90;;;;;;4925164;29;20033;-60
2023/09/20 01:53:11;;;;;;;1.13;0.88;;;11.20;99.90;;;;;;4928461;28;20027;-58
2023/09/20 01:55:37;;;;;;;1999.90;999.90;;;11.20;99.90;;;;;;4927415;29;20042;-59
2023/09/20 01:58:06;;;;;;;1999.90;999.90;;;11.20;99.90;;;;;;4924327;29;20034;-60
2023/09/20 02:00:36;;;;;;;1999.90;999.90;;;11.10;99.90;;;;;;4928639;28;20048;-60
2023/09/20 02:03:19;;;;;;;1999.90;999.90;;;11.10;99.90;;;;;;4926650;29;20053;-59
2023/09/20 02:05:48;;;;;;;1999.90;999.90;;;11.10;99.90;;;;;;4926609;28;20032;-59
2023/09/20 02:08:15;;;;;;;1999.90;999.90;;;11.10;99.90;;;;;;4927440;29;20023;-59
2023/09/20 02:10:41;;;;;;;1999.90;999.90;;;11.10;99.90;;;;;;4922192;29;20040;-59
2023/09/20 02:13:10;;;;;;;1999.90;999.90;;;11.10;99.90;;;;;;4927816;29;20087;-59
2023/09/20 02:15:36;;;;;;;0.68;0.68;;;11.20;99.90;;;;;;4926207;29;20122;-59
2023/09/20 02:18:06;;;;;;;1.50;1.00;;;11.20;99.90;;;;;;4924260;29;20472;-60
2023/09/20 02:20:36;;;;;;;2.47;1.00;;;11.20;99.90;;;;;;4927100;29;20044;-59
2023/09/20 02:23:05;;;;;;;1.05;1.00;;;11.20;99.90;;;;;;4927234;29;20075;-58
2023/09/20 02:25:30;;;;;;;1.17;1.00;;;11.20;99.90;;;;;;4928794;29;20043;-60
2023/09/20 02:27:57;;;;;;;1.58;1.02;;;11.20;99.90;;;;;;4929538;29;20035;-59
2023/09/20 02:30:28;;;;;;;0.68;0.60;;;11.20;99.90;;;;;;4925740;29;20408;-60
2023/09/20 02:32:54;;;;;;;1.75;0.85;;;11.30;99.90;;;;;;4930559;29;20415;-59
2023/09/20 02:35:20;;;;;;;0.60;0.60;;;11.30;99.90;;;;;;4923964;29;20032;-59
2023/09/20 02:37:47;;;;;;;0.50;0.50;;;11.30;99.90;;;;;;4930715;29;20023;-59
2023/09/20 02:40:14;;;;;;;0.60;0.60;;;11.30;99.90;;;;;;4926405;29;20032;-60
2023/09/20 02:42:45;;;;;;;2.63;1.23;;;11.30;99.90;;;;;;4927239;29;20447;-59
2023/09/20 02:45:12;;;;;;;;;;;11.30;99.90;;;;;;4926356;29;20117;-60
2023/09/20 02:47:39;;;;;;;0.50;0.50;;;11.30;99.90;;;;;;4925547;29;19911;-60
2023/09/20 02:50:13;;;;;;;1.05;0.95;;;11.30;99.90;;;;;;4930927;29;20040;-59
2023/09/20 02:52:40;;;;;;;0.75;0.75;;;11.30;99.90;;;;;;4927925;29;20064;-60
2023/09/20 02:55:07;;;;;;;0.77;0.77;;;11.30;99.90;;;;;;4930488;29;20063;-60
2023/09/20 02:57:37;;;;;;;0.98;0.90;;;11.20;99.90;;;;;;4929532;29;20409;-59
2023/09/20 03:00:06;;;;;;;0.40;0.40;;;11.20;99.90;;;;;;4928415;29;20122;-59
2023/09/20 03:02:34;;;;;;;0.98;0.88;;;11.20;99.90;;;;;;4925407;29;20099;-59
2023/09/20 03:05:00;;;;;;;1.10;1.00;;;11.20;99.90;;;;;;4925624;29;20027;-61
2023/09/20 03:07:26;;;;;;;0.82;0.82;;;11.20;99.90;;;;;;4924391;29;20025;-58
2023/09/20 03:09:51;;;;;;;0.73;0.70;;;11.20;99.90;;;;;;4924779;29;20028;-59
2023/09/20 03:12:17;;;;;;;0.75;0.73;;;11.10;99.90;;;;;;4923710;29;20119;-60
2023/09/20 03:14:45;;;;;;;1.13;1.02;;;11.10;99.90;;;;;;4930146;29;20551;-59
2023/09/20 03:17:12;;;;;;;0.60;0.60;;;11.10;99.90;;;;;;4923590;28;20028;-59
2023/09/20 03:19:38;;;;;;;12.13;1.15;;;11.20;99.90;;;;;;4925577;29;20062;-59
2023/09/20 03:22:06;;;;;;;0.57;0.57;;;11.10;99.90;;;;;;4908715;29;20048;-59
2023/09/20 03:24:32;;;;;;;1.40;0.63;;;11.10;99.90;;;;;;4923950;28;20032;-60
2023/09/20 03:27:01;;;;;;;1.10;0.85;;;11.20;99.90;;;;;;4919991;29;20855;-59
2023/09/20 03:29:27;;;;;;;0.40;0.40;;;11.20;99.90;;;;;;4926519;29;20032;-60
2023/09/20 03:31:53;;;;;;;1.80;0.88;;;11.20;99.90;;;;;;4907247;29;20021;-59
2023/09/20 03:34:20;;;;;;;0.52;0.52;;;11.20;99.90;;;;;;4926497;29;20031;-59
2023/09/20 03:36:46;;;;;;;0.55;0.55;;;11.20;99.90;;;;;;4926299;29;20036;-58
2023/09/20 03:39:12;;;;;;;1.38;0.70;;;11.30;99.90;;;;;;4923215;29;20381;-59
2023/09/20 03:41:38;;;;;;;0.63;0.63;;;11.20;99.90;;;;;;4907000;29;20043;-59
2023/09/20 03:44:05;;;;;;;1.48;1.38;;;11.20;99.90;;;;;;4926801;29;20059;-59
2023/09/20 03:46:32;;;;;;;0.60;0.60;;;11.20;99.90;;;;;;4924690;29;20031;-58
2023/09/20 03:48:58;;;;;;;0.47;0.47;;;11.30;99.90;;;;;;4922985;29;20083;-60
2023/09/20 03:51:24;;;;;;;1.00;0.80;;;11.30;99.90;;;;;;4926422;29;20028;-60
2023/09/20 03:53:49;;;;;;;0.65;0.65;;;11.30;99.90;;;;;;4925448;29;20035;-59
2023/09/20 03:56:15;;;;;;;0.60;0.52;;;11.30;99.90;;;;;;4924212;29;20040;-59
2023/09/20 03:58:41;;;;;;;0.50;0.50;;;11.30;99.90;;;;;;4924131;29;20024;-59
2023/09/20 04:01:08;;;;;;;1.73;1.63;;;11.30;99.90;;;;;;4925575;28;20031;-60
2023/09/20 04:03:37;;;;;;;0.70;0.70;;;11.30;99.90;;;;;;4924341;29;20036;-58
2023/09/20 04:06:03;;;;;;;0.80;0.77;;;11.40;99.90;;;;;;4928788;28;20034;-59
2023/09/20 04:08:29;;;;;;;0.50;0.50;;;11.40;99.90;;;;;;4925412;29;20028;-59
2023/09/20 04:10:56;;;;;;;0.50;0.50;;;11.30;99.90;;;;;;4927041;29;20123;-59
2023/09/20 04:13:23;;;;;;;1.05;0.95;;;11.30;99.90;;;;;;4924443;29;20035;-59
2023/09/20 04:15:49;;;;;;;2.05;0.88;;;11.30;99.90;;;;;;4928642;29;20396;-59
2023/09/20 04:18:15;;;;;;;0.40;0.40;;;11.30;99.90;;;;;;4927425;28;20040;-61
2023/09/20 04:20:44;;;;;;;1.00;0.52;;;11.30;99.90;;;;;;4926501;29;20111;-58
2023/09/20 04:23:10;;;;;;;0.75;0.47;;;11.40;99.90;;;;;;4927324;29;20042;-59
2023/09/20 04:25:36;;;;;;;0.40;0.40;;;11.40;99.90;;;;;;4928779;29;20016;-59
2023/09/20 04:28:02;;;;;;;3.00;0.73;;;11.40;99.90;;;;;;4929328;29;20035;-61
2023/09/20 04:30:29;;;;;;;0.50;0.50;;;11.40;99.90;;;;;;4931251;29;20032;-59
2023/09/20 04:32:55;;;;;;;4.78;4.53;;;11.40;99.90;;;;;;4928864;29;20105;-59
2023/09/20 04:35:20;;;;;;;14.85;3.35;;;11.50;99.90;;;;;;4928377;29;20661;-60
2023/09/20 04:37:46;;;;;;;1664.72;112.90;;;11.50;99.90;;;;;;4930273;29;20075;-60
2023/09/20 04:40:13;;;;;;;1206.65;151.88;;;11.40;99.90;;;;;;4929291;29;20035;-59
2023/09/20 04:42:39;;;;;;;22.60;2.28;;;11.40;99.90;;;;;;4927522;29;20757;-60
2023/09/20 04:45:12;;;;;;;3.83;2.22;;;11.30;99.90;;;;;;4928623;29;20039;-60
2023/09/20 04:47:38;;;;;;;2.45;1.40;;;11.10;99.90;;;;;;4925642;28;20119;-59
2023/09/20 04:50:04;;;;;;;2.38;1.50;;;11.00;99.90;;;;;;4928877;29;20138;-60
2023/09/20 04:52:30;;;;;;;3.28;1.42;;;10.90;99.90;;;;;;4929132;29;20034;-59
2023/09/20 04:54:56;;;;;;;2.90;1.02;;;10.90;99.90;;;;;;4925503;29;20071;-59
2023/09/20 04:57:21;;;;;;;2.15;1.55;;;10.90;99.90;;;;;;4927190;29;20032;-59
2023/09/20 04:59:47;;;;;;;2.60;1.85;;;10.90;99.90;;;;;;4922485;29;20175;-59
2023/09/20 05:02:14;;;;;;;4.07;1.85;;;11.00;99.90;;;;;;4929794;29;20051;-58
2023/09/20 05:04:40;;;;;;;2.20;1.75;;;11.10;99.90;;;;;;4925700;29;20114;-58
2023/09/20 05:07:06;;;;;;;1.98;1.58;;;11.10;99.90;;;;;;4928474;29;20135;-59
2023/09/20 05:09:34;;;;;;;2.67;1.33;;;11.20;99.90;;;;;;4926842;29;20035;-59
2023/09/20 05:12:02;;;;;;;1.85;1.60;;;11.20;99.90;;;;;;4928607;29;20055;-59
2023/09/20 05:14:28;;;;;;;1.83;1.52;;;11.30;99.90;;;;;;4926759;29;20024;-59
2023/09/20 05:16:53;;;;;;;3.25;1.70;;;11.30;99.90;;;;;;4925234;29;20016;-59
2023/09/20 05:19:19;;;;;;;2.22;1.63;;;11.30;99.90;;;;;;4927631;29;20179;-60
2023/09/20 05:21:45;;;;;;;1.77;1.48;;;11.40;99.90;;;;;;4926777;29;20492;-60
2023/09/20 05:24:11;;;;;;;2.22;1.30;;;11.40;99.90;;;;;;4927388;29;20404;-59
2023/09/20 05:26:36;;;;;;;4.13;1.42;;;11.50;99.90;;;;;;4926628;29;20036;-59
2023/09/20 05:29:03;;;;;;;1.85;1.50;;;11.50;99.90;;;;;;4929773;29;20102;-58
2023/09/20 05:31:29;;;;;;;3.45;1.70;;;11.50;99.90;;;;;;4926816;29;20382;-59
2023/09/20 05:33:55;;;;;;;1.83;1.40;;;11.50;99.90;;;;;;4923644;29;20028;-58
2023/09/20 05:36:27;;;;;;;2.55;1.75;;;11.50;99.90;;;;;;4926935;29;20032;-58
2023/09/20 05:38:53;;;;;;;2.85;2.25;;;11.50;99.90;;;;;;4927298;29;20600;-59
2023/09/20 05:41:19;;;;;;;3.55;1.75;;;11.50;99.90;;;;;;4929489;29;20032;-59
2023/09/20 05:43:45;;;;;;;2.33;1.95;;;11.40;99.90;;;;;;4931396;29;20016;-59
2023/09/20 05:46:13;;;;;;;1999.90;999.90;;;11.40;99.90;;;;;;4925243;29;20055;-60
2023/09/20 05:48:39;;;;;;;1999.90;999.90;;;11.40;99.90;;;;;;4928062;29;20028;-59
2023/09/20 05:51:05;;;;;;;1999.90;999.90;;;11.50;99.90;;;;;;4927033;29;20028;-60
2023/09/20 05:53:32;;;;;;;1999.90;999.90;;;11.50;99.90;;;;;;4909977;29;20036;-60
2023/09/20 05:56:05;;;;;;;1999.90;999.90;;;11.50;99.90;;;;;;4926646;29;20059;-58
2023/09/20 05:58:31;;;;;;;1999.90;999.90;;;11.60;99.90;;;;;;4926928;29;20036;-59
2023/09/20 06:00:59;;;;;;;1999.90;999.90;;;11.70;99.90;;;;;;4927276;29;20035;-60
2023/09/20 06:03:25;;;;;;;1999.90;999.90;;;11.70;99.90;;;;;;4925371;28;20560;-59
2023/09/20 06:05:50;;;;;;;1999.90;999.90;;;11.80;99.90;;;;;;4930002;29;20032;-59
2023/09/20 06:08:16;;;;;;;1999.90;999.90;;;11.90;99.90;;;;;;4929740;28;20161;-59
2023/09/20 06:10:44;;;;;;;1999.90;999.90;;;12.00;99.90;;;;;;4930066;29;20035;-59
2023/09/20 06:13:10;;;;;;;1999.90;999.90;;;12.10;99.90;;;;;;4930997;29;20028;-59
2023/09/20 06:15:37;;;;;;;1999.90;999.90;;;12.20;99.90;;;;;;4930210;29;20043;-59
2023/09/20 06:18:02;;;;;;;1999.90;999.90;;;12.30;99.90;;;;;;4915387;29;20035;-60
2023/09/20 06:20:28;;;;;;;1999.90;999.90;;;12.40;99.90;;;;;;4927997;29;20805;-60
2023/09/20 06:22:56;;;;;;;1999.90;999.90;;;12.50;99.90;;;;;;4927186;29;20107;-59
2023/09/20 06:25:22;;;;;;;1999.90;999.90;;;12.50;99.90;;;;;;4910642;29;20034;-60
2023/09/20 06:27:51;;;;;;;1999.90;999.90;;;12.50;99.90;;;;;;4927572;29;20435;-60
2023/09/20 06:30:24;;;;;;;1999.90;999.90;;;12.60;99.90;;;;;;4925927;29;20036;-59
2023/09/20 06:32:50;;;;;;;1999.90;999.90;;;12.60;99.90;;;;;;4928847;29;20024;-59
2023/09/20 06:35:19;;;;;;;1999.90;999.90;;;12.60;99.90;;;;;;4926675;29;20030;-59
2023/09/20 06:37:47;;;;;;;1999.90;999.90;;;12.60;99.90;;;;;;4927365;29;20027;-60
2023/09/20 06:40:23;;;;;;;1999.90;999.90;;;12.60;99.90;;;;;;4925931;29;20396;-60
2023/09/20 06:42:50;;;;;;;1999.90;999.90;;;12.60;99.90;;;;;;4925619;29;20515;-59
2023/09/20 06:45:17;;;;;;;1999.90;999.90;;;12.60;99.90;;;;;;4925620;29;20051;-58
2023/09/20 06:47:43;;;;;;;1999.90;999.90;;;12.60;99.90;;;;;;4925633;29;20028;-59
2023/09/20 06:50:09;;;;;;;1999.90;999.90;;;12.60;99.90;;;;;;4922284;29;20036;-59
2023/09/20 06:52:34;;;;;;;1999.90;999.90;;;12.60;99.90;;;;;;4926930;29;20042;-59
2023/09/20 06:55:00;;;;;;;1999.90;999.90;;;12.60;99.90;;;;;;4924856;29;20029;-59
2023/09/20 06:57:26;;;;;;;1999.90;999.90;;;12.60;99.90;;;;;;4925253;29;20036;-60
2023/09/20 06:59:52;;;;;;;1999.90;999.90;;;12.60;99.90;;;;;;4922098;29;20036;-59
2023/09/20 07:02:19;;;;;;;1999.90;999.90;;;12.60;99.90;;;;;;4924123;28;20027;-59
2023/09/20 07:04:44;;;;;;;1999.90;999.90;;;12.70;99.90;;;;;;4927970;29;20091;-59
2023/09/20 07:07:10;;;;;;;1999.90;999.90;;;12.70;99.90;;;;;;4926609;29;20123;-59
2023/09/20 07:09:37;;;;;;;1999.90;999.90;;;12.90;99.90;;;;;;4924319;28;20492;-61
2023/09/20 07:12:03;;;;;;;1999.90;999.90;;;13.00;99.90;;;;;;4922694;29;20519;-59
2023/09/20 07:14:31;;;;;;;1999.90;999.90;;;13.20;99.90;;;;;;4922812;29;20114;-59
2023/09/20 07:16:58;;;;;;;1999.90;999.90;;;13.40;99.90;;;;;;4925094;29;20039;-59
2023/09/20 07:19:28;;;;;;;1999.90;999.90;;;13.60;99.90;;;;;;4886668;29;1091127;-59
2023/09/20 07:21:55;;;;;;;1999.90;999.90;;;13.90;99.90;;;;;;4927017;29;20031;-59
2023/09/20 07:24:24;;;;;;;1999.90;999.90;;;14.00;99.90;;;;;;4924672;29;20028;-59
2023/09/20 07:26:51;;;;;;;1999.90;999.90;;;14.20;99.90;;;;;;4923838;29;20557;-60
2023/09/20 07:29:18;;;;;;;763.75;396.98;;;14.10;99.90;;;;;;4922538;29;20163;-59
2023/09/20 07:31:45;;;;;;;0.40;0.40;;;14.10;99.90;;;;;;4928907;29;20028;-61
2023/09/20 07:34:13;;;;;;;0.43;0.43;;;14.10;99.90;;;;;;4926227;29;20035;-60
2023/09/20 07:36:40;;;;;;;0.65;0.63;;;14.20;99.90;;;;;;4924182;29;20063;-60
2023/09/20 07:39:10;;;;;;;0.52;0.52;;;14.20;99.90;;;;;;4924556;29;20043;-59
2023/09/20 07:41:36;;;;;;;0.77;0.68;;;14.20;99.90;;;;;;4926135;29;20504;-61
2023/09/20 07:44:05;;;;;;;0.45;0.45;;;14.30;99.90;;;;;;4928078;29;20615;-60
2023/09/20 07:46:34;;;;;;;0.50;0.50;;;14.40;99.90;;;;;;4924565;29;20055;-60
2023/09/20 07:49:09;;;;;;;0.75;0.75;;;14.50;99.90;;;;;;4924107;28;20527;-61
2023/09/20 07:51:38;;;;;;;0.50;0.50;;;14.80;99.90;;;;;;4928039;29;20035;-61
2023/09/20 07:54:05;;;;;;;1.27;1.15;;;15.20;99.90;;;;;;4930459;28;20032;-61
2023/09/20 07:56:32;;;;;;;0.63;0.60;;;15.50;99.90;;;;;;4927656;29;20513;-60
2023/09/20 07:58:58;;;;;;;1.27;0.60;;;15.70;99.90;;;;;;4929557;29;20060;-60
2023/09/20 08:01:29;;;;;;;0.65;0.65;;;16.00;99.90;;;;;;4930776;29;20099;-60
2023/09/20 08:03:58;;;;;;;0.57;0.57;;;16.30;99.90;;;;;;4928080;29;20023;-60
2023/09/20 08:06:26;;;;;;;0.57;0.57;;;16.50;99.90;;;;;;4929413;29;20403;-59
2023/09/20 08:08:51;;;;;;;6.82;1.27;;;16.60;99.90;;;;;;4930584;29;20031;-59
2023/09/20 08:11:17;;;;;;;0.75;0.50;;;16.80;99.90;;;;;;4929777;29;20035;-60
2023/09/20 08:13:43;;;;;;;1.08;0.80;;;17.00;99.90;;;;;;4930148;29;20035;-59
2023/09/20 08:16:10;;;;;;;49.22;46.10;;;17.10;99.90;;;;;;4929152;29;20103;-60
2023/09/20 08:21:29;;;;;;;461.98;74.68;;;17.60;99.90;;;;;;4929952;29;20115;-60
2023/09/20 08:59:52;;;;;;;1999.90;999.90;;;20.10;99.90;;;;;;4922525;29;20582;-59
2023/09/20 09:02:19;;;;;;;1999.90;999.90;;;20.20;99.90;;;;;;4928601;29;20090;-60
2023/09/20 09:04:46;;;;;;;1999.90;999.90;;;20.40;99.90;;;;;;4926712;29;20020;-61
2023/09/20 09:07:17;;;;;;;1999.90;999.90;;;20.60;99.90;;;;;;4926390;29;20500;-60
2023/09/20 09:09:43;;;;;;;1999.90;999.90;;;21.30;99.90;;;;;;4928793;29;20032;-60
2023/09/20 09:12:12;;;;;;;1999.90;999.90;;;22.00;99.90;;;;;;4929036;29;20028;-60
2023/09/20 09:14:39;;;;;;;1604.35;776.03;;;22.70;99.90;;;;;;4927748;29;20487;-60
2023/09/20 09:17:09;;;;;;;1999.90;999.90;;;23.10;99.90;;;;;;4927972;29;20028;-61
2023/09/20 09:19:36;;;;;;;1442.53;689.33;;;23.30;99.90;;;;;;4928396;29;20050;-61
2023/09/20 09:22:02;;;;;;;1999.90;999.90;;;23.40;97.90;;;;;;4928620;29;20035;-61
2023/09/20 09:24:41;;;;;;;1999.90;999.90;;;23.60;96.70;;;;;;4926660;29;20052;-61
2023/09/20 09:27:08;;;;;;;1999.90;999.90;;;23.70;99.40;;;;;;4927642;29;20024;-60
2023/09/20 09:29:34;;;;;;;1999.90;999.90;;;23.90;95.20;;;;;;4927889;29;20062;-60
2023/09/20 09:32:04;;;;;;;1999.90;999.90;;;24.00;96.40;;;;;;4927053;29;20028;-60
2023/09/20 09:34:30;;;;;;;1999.90;999.90;;;23.80;94.10;;;;;;4926480;29;20115;-60
2023/09/20 09:36:56;;;;;;;1999.90;999.90;;;23.60;93.20;;;;;;4925760;29;20051;-59
2023/09/20 09:39:24;;;;;;;1999.90;999.90;;;23.50;92.50;;;;;;4927203;29;20051;-60
2023/09/20 09:41:51;;;;;;;1999.90;999.90;;;23.30;93.20;;;;;;4925506;29;20033;-60
2023/09/20 09:44:17;;;;;;;1999.90;999.90;;;23.30;93.50;;;;;;4926793;28;20456;-61
2023/09/20 09:46:43;;;;;;;1999.90;999.90;;;23.10;92.50;;;;;;4926175;29;20054;-59
2023/09/20 09:49:11;;;;;;;1999.90;999.90;;;23.00;93.10;;;;;;4928393;29;20028;-59
2023/09/20 09:51:45;;;;;;;1999.90;999.90;;;22.80;92.30;;;;;;4928850;29;20038;-61
2023/09/20 09:54:12;;;;;;;1999.90;999.90;;;22.70;92.50;;;;;;4927481;28;20047;-59
2023/09/20 09:56:39;;;;;;;1999.90;999.90;;;22.60;97.00;;;;;;4925613;29;20495;-60
2023/09/20 09:59:07;;;;;;;15.45;14.80;;;22.70;96.40;;;;;;4925070;29;20111;-60
2023/09/20 10:01:37;;;;;;;1999.90;999.90;;;22.60;96.60;;;;;;4926857;29;20035;-59
2023/09/20 10:04:08;;;;;;;1999.90;999.90;;;22.70;97.10;;;;;;4927313;28;20032;-59
2023/09/20 10:07:02;;;;;;;1999.90;999.90;;;22.70;94.10;;;;;;4926605;29;20378;-60
2023/09/20 10:09:35;;;;;;;1999.90;999.90;;;22.80;96.50;;;;;;4925884;28;20036;-60
2023/09/20 10:12:02;;;;;;;1999.90;999.90;;;22.90;95.10;;;;;;4927480;29;20024;-61
2023/09/20 10:14:27;;;;;;;1999.90;999.90;;;23.00;94.20;;;;;;4924754;28;20028;-59
2023/09/20 10:16:53;;;;;;;1999.90;999.90;;;22.80;94.40;;;;;;4928538;29;20547;-60
2023/09/20 10:19:20;;;;;;;1999.90;999.90;;;22.70;95.60;;;;;;4924260;29;20032;-60
2023/09/20 10:22:09;;;;;;;1999.90;999.90;;;22.80;97.10;;;;;;4926627;29;20033;-60
2023/09/20 10:24:53;;;;;;;1999.90;999.90;;;22.90;99.50;;;;;;4914567;29;20092;-60
2023/09/20 10:27:27;;;;;;;1999.90;999.90;;;23.00;95.00;;;;;;4925581;29;20046;-58
2023/09/20 10:30:14;;;;;;;1999.90;999.90;;;23.30;95.50;;;;;;4926315;29;20038;-60
2023/09/20 10:32:47;;;;;;;1999.90;999.90;;;23.40;94.10;;;;;;4930587;29;20043;-61
2023/09/20 10:35:44;;;;;;;1999.90;999.90;;;23.50;94.10;;;;;;4924614;28;20042;-60
2023/09/20 10:38:17;;;;;;;1999.90;999.90;;;23.60;88.60;;;;;;4923598;29;20020;-60
2023/09/20 10:43:15;;;;;;;1999.90;999.90;;;23.60;92.60;;;;;;4927399;28;20032;-60
2023/09/20 10:45:48;;;;;;;1999.90;999.90;;;23.70;93.40;;;;;;4927848;29;20060;-60
2023/09/20 10:48:18;;;;;;;1999.90;999.90;;;23.80;94.40;;;;;;4927094;28;20110;-59
2023/09/20 10:50:47;;;;;;;1999.90;999.90;;;23.90;92.10;;;;;;4928286;29;20132;-60
2023/09/20 10:53:13;;;;;;;1999.90;999.90;;;24.00;90.50;;;;;;4926993;29;20031;-59
2023/09/20 10:55:39;;;;;;;1999.90;999.90;;;24.00;90.40;;;;;;4929331;29;20020;-60
2023/09/20 10:58:05;;;;;;;1999.90;999.90;;;24.10;91.80;;;;;;4927118;29;20052;-61
2023/09/20 11:00:35;;;;;;;139.10;49.92;;;24.00;91.20;;;;;;4927295;29;20042;-60
2023/09/20 11:03:06;;;;;;;5.20;5.00;;;23.90;86.70;;;;;;4924581;29;20033;-61
2023/09/20 11:05:33;;;;;;;11.82;10.23;;;23.70;90.60;;;;;;4926665;29;20263;-60
2023/09/20 11:08:05;;;;;;;11.30;10.52;;;23.50;88.80;;;;;;4928544;29;20676;-60
2023/09/20 11:10:31;;;;;;;30.70;29.27;;;23.30;89.80;;;;;;4924567;29;20115;-61
2023/09/20 11:12:57;;;;;;;23.20;22.42;;;23.30;92.80;;;;;;4924521;29;20419;-60
2023/09/20 11:15:23;;;;;;;1999.90;999.90;;;23.40;93.60;;;;;;4926254;29;20144;-60
2023/09/20 11:17:49;;;;;;;1999.90;999.90;;;23.60;92.10;;;;;;4923959;29;20115;-60
2023/09/20 11:20:15;;;;;;;1999.90;999.90;;;23.60;88.40;;;;;;4922757;29;20072;-60
2023/09/20 11:22:41;;;;;;;1999.90;999.90;;;23.50;86.00;;;;;;4903458;29;20107;-60
2023/09/20 11:25:08;;;;;;;1999.90;999.90;;;23.50;89.10;;;;;;4926094;29;20194;-60
2023/09/20 11:27:34;;;;;;;1999.90;999.90;;;23.50;86.90;;;;;;4923620;29;20099;-59
2023/09/20 11:30:08;;;;;;;1999.90;999.90;;;23.50;90.10;;;;;;4924429;29;20102;-59
2023/09/20 11:32:34;;;;;;;8.93;8.60;;;23.70;85.00;;;;;;4927777;29;20063;-60
2023/09/20 11:35:01;;;;;;;1999.90;999.90;;;24.00;83.60;;;;;;4923934;29;20436;-60
2023/09/20 11:37:30;;;;;;;0.20;0.20;;;24.30;80.80;;;;;;4924957;29;20046;-60
2023/09/20 11:39:56;;;;;;;1.27;0.47;;;24.50;80.90;;;;;;4923731;29;20037;-59
2023/09/20 11:42:31;;;;;;;1.20;1.20;;;24.70;74.30;;;;;;4925795;29;20028;-60
2023/09/20 11:45:01;;;;;;;2.22;0.70;;;24.70;69.90;;;;;;4924538;29;20028;-59
2023/09/20 11:47:31;;;;;;;0.90;0.47;;;24.60;70.60;;;;;;4928428;29;20027;-60
2023/09/20 11:49:57;;;;;;;0.50;0.50;;;24.60;72.30;;;;;;4927591;29;20023;-60
2023/09/20 11:52:23;;;;;;;564.95;311.23;;;24.60;73.10;;;;;;4922752;28;20040;-59
2023/09/20 11:54:48;;;;;;;86.32;3.92;;;24.80;72.70;;;;;;4926687;29;20039;-60
2023/09/20 11:57:17;;;;;;;126.60;7.22;;;24.90;73.80;;;;;;4923630;29;20035;-60
2023/09/20 11:59:44;;;;;;;178.10;8.77;;;25.10;71.10;;;;;;4924629;28;20067;-60
2023/09/20 12:02:12;;;;;;;0.28;0.28;;;25.10;68.40;;;;;;4927106;29;20017;-60
2023/09/20 12:04:38;;;;;;;0.20;0.20;;;25.20;67.90;;;;;;4925644;29;20485;-60
2023/09/20 12:07:07;;;;;;;0.63;0.20;;;25.30;68.20;;;;;;4922135;29;20047;-60
2023/09/20 12:09:33;;;;;;;0.68;0.68;;;25.40;65.80;;;;;;4925104;29;20032;-60
2023/09/20 12:11:59;;;;;;;0.75;0.22;;;25.40;67.80;;;;;;4923340;28;20031;-60
2023/09/20 12:14:24;;;;;;;0.20;0.20;;;25.30;66.70;;;;;;4907546;29;20029;-60
2023/09/20 12:16:50;;;;;;;0.10;0.10;;;25.30;65.70;;;;;;4913066;29;20383;-60
2023/09/20 12:19:16;;;;;;;0.10;0.10;;;25.20;65.70;;;;;;4924795;29;20043;-61
2023/09/20 12:21:44;;;;;;;0.10;0.10;;;25.10;66.00;;;;;;4924509;29;20043;-60
2023/09/20 12:24:13;;;;;;;0.22;0.22;;;25.10;65.60;;;;;;4928632;29;20036;-60
2023/09/20 12:26:39;;;;;;;0.50;0.50;;;25.20;65.20;;;;;;4909583;29;20492;-60
2023/09/20 12:29:06;;;;;;;0.25;0.25;;;25.10;66.00;;;;;;4927785;29;20027;-61
2023/09/20 12:31:32;;;;;;;0.10;0.10;;;24.90;66.60;;;;;;4926547;29;20032;-61
2023/09/20 12:33:58;;;;;;;0.50;0.50;;;24.70;66.50;;;;;;4926462;29;20161;-61
2023/09/20 12:36:24;;;;;;;0.30;0.20;;;24.40;67.60;;;;;;4922772;29;20035;-61
2023/09/20 12:38:50;;;;;;;0.47;0.22;;;24.40;69.10;;;;;;4927982;29;20028;-61
2023/09/20 12:41:18;;;;;;;0.30;0.30;;;24.50;68.00;;;;;;4927005;29;20054;-60
2023/09/20 12:43:44;;;;;;;1.20;1.10;;;24.60;67.90;;;;;;4925386;29;20012;-62
2023/09/20 12:46:10;;;;;;;0.22;0.22;;;24.70;68.70;;;;;;4926399;29;20165;-61
2023/09/20 12:48:37;;;;;;;0.30;0.30;;;24.90;70.40;;;;;;4929601;28;20432;-61
2023/09/20 12:51:04;;;;;;;0.60;0.60;;;25.10;67.80;;;;;;4928475;29;20031;-61
2023/09/20 12:53:32;;;;;;;0.30;0.30;;;25.30;66.50;;;;;;4926903;29;20067;-61
2023/09/20 12:55:57;;;;;;;0.40;0.40;;;25.20;65.00;;;;;;4925173;29;20012;-59
2023/09/20 12:58:23;;;;;;;0.40;0.40;;;25.10;65.80;;;;;;4927856;29;20447;-60
2023/09/20 13:00:49;;;;;;;0.45;0.45;;;25.10;67.60;;;;;;4928192;29;20484;-60
2023/09/20 13:03:16;;;;;;;0.40;0.40;;;25.10;66.70;;;;;;4927993;29;20036;-61
2023/09/20 13:05:43;;;;;;;1.95;0.65;;;25.10;68.50;;;;;;4926980;29;20036;-60
2023/09/20 13:08:10;;;;;;;0.90;0.40;;;25.00;66.00;;;;;;4929791;29;20023;-60
2023/09/20 13:10:37;;;;;;;0.30;0.30;;;24.90;67.30;;;;;;4927239;29;20040;-60